Time;durP1;ratioP1;P1;durP2;ratioP2;P2;SDS_P1;SDS_P2;PMS_P1;PMS_P2;Temp;Humidity;BMP_temperature;BMP_pressure;BME280_temperature;BME280_humidity;BME280_pressure;Samples;Min_cycle;Max_cycle;Signal;HPM_P1;HPM_P2
2023/04/09 00:00:15;;;;;;;12.65;11.65;;;8.20;99.90;;;;;;6056280;23;20218;-72
2023/04/09 00:02:42;;;;;;;13.90;12.65;;;8.20;99.90;;;;;;6057793;23;20227;-72
2023/04/09 00:05:09;;;;;;;13.95;12.85;;;8.20;99.90;;;;;;6058790;23;20195;-72
2023/04/09 00:07:37;;;;;;;14.30;13.10;;;8.20;99.90;;;;;;6059090;23;20231;-72
2023/04/09 00:10:04;;;;;;;13.00;11.98;;;8.20;99.90;;;;;;6056296;23;20191;-73
2023/04/09 00:12:32;;;;;;;14.02;12.73;;;8.20;99.90;;;;;;6060730;23;20284;-72
2023/04/09 00:15:00;;;;;;;14.30;13.10;;;8.20;99.90;;;;;;6047967;23;20278;-72
2023/04/09 00:17:26;;;;;;;14.23;13.00;;;8.20;99.90;;;;;;6059577;23;20275;-72
2023/04/09 00:19:54;;;;;;;13.55;12.25;;;8.20;99.90;;;;;;6058163;23;20655;-73
2023/04/09 00:22:21;;;;;;;13.45;12.35;;;8.20;99.90;;;;;;6058440;23;20230;-73
2023/04/09 00:24:48;;;;;;;14.38;13.07;;;8.20;99.90;;;;;;6060110;23;20235;-73
2023/04/09 00:27:15;;;;;;;14.15;12.95;;;8.20;99.90;;;;;;6061646;23;20276;-73
2023/04/09 00:29:43;;;;;;;15.00;13.80;;;8.20;99.90;;;;;;6062000;23;20218;-72
2023/04/09 00:32:10;;;;;;;15.02;13.82;;;8.20;99.90;;;;;;6058730;23;20541;-73
2023/04/09 00:34:37;;;;;;;13.60;12.40;;;8.30;99.90;;;;;;6059099;23;20229;-72
2023/04/09 00:37:05;;;;;;;14.07;12.98;;;8.30;99.90;;;;;;6058239;23;20266;-72
2023/04/09 00:39:32;;;;;;;13.93;12.70;;;8.30;99.90;;;;;;6055699;23;20632;-72
2023/04/09 00:42:01;;;;;;;13.65;12.45;;;8.30;99.90;;;;;;6057629;23;20233;-71
2023/04/09 00:44:29;;;;;;;13.80;12.70;;;8.30;99.90;;;;;;6060490;23;20582;-72
2023/04/09 00:46:59;;;;;;;14.10;12.85;;;8.40;99.90;;;;;;6059638;23;20246;-72
2023/04/09 00:49:26;;;;;;;14.10;12.80;;;8.40;99.90;;;;;;6059623;23;20206;-72
2023/04/09 00:51:53;;;;;;;13.63;12.52;;;8.40;99.90;;;;;;6061771;23;20764;-72
2023/04/09 00:54:20;;;;;;;13.85;12.77;;;8.40;99.90;;;;;;6057459;23;20275;-72
2023/04/09 00:56:47;;;;;;;13.05;11.95;;;8.40;99.90;;;;;;6057908;23;20195;-72
2023/04/09 00:59:15;;;;;;;12.38;11.35;;;8.40;99.90;;;;;;6061490;23;20285;-71
2023/04/09 01:01:42;;;;;;;13.35;12.25;;;8.40;99.90;;;;;;6062546;23;20580;-71
2023/04/09 01:04:11;;;;;;;13.95;12.70;;;8.40;99.90;;;;;;6058062;23;20714;-72
2023/04/09 01:06:47;;;;;;;13.85;12.73;;;8.40;99.90;;;;;;6061158;23;20715;-72
2023/04/09 01:09:21;;;;;;;13.60;12.45;;;8.40;99.90;;;;;;6059067;23;20670;-72
2023/04/09 01:12:00;;;;;;;14.25;13.02;;;8.40;99.90;;;;;;6058284;23;20220;-72
2023/04/09 01:14:32;;;;;;;12.85;11.85;;;8.40;99.90;;;;;;6057591;23;20192;-72
2023/04/09 01:17:05;;;;;;;13.10;12.07;;;8.40;99.90;;;;;;6061794;23;20283;-72
2023/04/09 01:19:48;;;;;;;13.40;12.20;;;8.40;99.90;;;;;;6059396;23;20220;-72
2023/04/09 01:22:40;;;;;;;13.32;12.23;;;8.40;99.90;;;;;;6057215;23;20229;-72
2023/04/09 01:25:19;;;;;;;12.40;11.40;;;8.30;99.90;;;;;;6060788;23;20192;-72
2023/04/09 01:27:56;;;;;;;13.55;12.45;;;8.30;99.90;;;;;;6058576;23;20208;-71
2023/04/09 01:30:27;;;;;;;13.13;12.02;;;8.30;99.90;;;;;;6057930;23;20685;-72
2023/04/09 01:32:57;;;;;;;12.45;11.40;;;8.30;99.90;;;;;;6062952;23;20215;-72
2023/04/09 01:35:25;;;;;;;12.73;11.73;;;8.30;99.90;;;;;;6060164;23;20278;-72
2023/04/09 01:37:53;;;;;;;12.23;11.23;;;8.30;99.90;;;;;;6058885;23;20274;-72
2023/04/09 01:40:20;;;;;;;13.38;12.10;;;8.30;99.90;;;;;;6061419;23;20653;-72
2023/04/09 01:42:48;;;;;;;11.98;11.05;;;8.30;99.90;;;;;;6058434;23;20597;-72
2023/04/09 01:45:16;;;;;;;13.38;12.27;;;8.30;99.90;;;;;;6033834;23;20224;-72
2023/04/09 01:47:45;;;;;;;13.02;11.88;;;8.30;99.90;;;;;;6040107;23;20192;-72
2023/04/09 01:50:12;;;;;;;11.85;10.93;;;8.40;99.90;;;;;;6049261;23;20216;-71
2023/04/09 01:52:40;;;;;;;11.65;10.70;;;8.40;99.90;;;;;;6057923;23;20227;-71
2023/04/09 01:55:08;;;;;;;12.13;11.13;;;8.40;99.90;;;;;;6061109;23;20267;-72
2023/04/09 01:57:35;;;;;;;12.63;11.57;;;8.40;99.90;;;;;;6062814;23;20571;-72
2023/04/09 02:00:02;;;;;;;11.85;10.85;;;8.40;99.90;;;;;;6058771;23;20278;-72
2023/04/09 02:02:38;;;;;;;11.50;10.50;;;8.40;99.90;;;;;;6060084;23;20261;-72
2023/04/09 02:05:11;;;;;;;13.00;11.90;;;8.30;99.90;;;;;;6061329;23;20199;-72
2023/04/09 02:07:41;;;;;;;12.77;11.65;;;8.30;99.90;;;;;;6059340;23;20253;-72
2023/04/09 02:10:10;;;;;;;12.20;11.30;;;8.30;99.90;;;;;;6058631;23;20207;-72
2023/04/09 02:12:40;;;;;;;12.75;11.65;;;8.20;99.90;;;;;;6058997;23;20222;-72
2023/04/09 02:15:08;;;;;;;12.75;11.75;;;8.20;99.90;;;;;;6039427;23;20275;-72
2023/04/09 02:17:35;;;;;;;12.13;11.13;;;8.20;99.90;;;;;;6051599;23;20272;-72
2023/04/09 02:20:02;;;;;;;12.93;11.70;;;8.20;99.90;;;;;;6056010;23;20193;-72
2023/04/09 02:22:31;;;;;;;12.52;11.43;;;8.10;99.90;;;;;;6048377;23;20312;-72
2023/04/09 02:24:57;;;;;;;12.23;11.13;;;8.10;99.90;;;;;;6061004;23;20191;-73
2023/04/09 02:27:24;;;;;;;11.40;10.50;;;8.10;99.90;;;;;;6060695;23;20262;-72
2023/04/09 02:29:52;;;;;;;12.15;10.98;;;8.10;99.90;;;;;;6060996;23;20243;-72
2023/04/09 02:32:18;;;;;;;11.93;10.90;;;8.10;99.90;;;;;;6060145;23;20641;-72
2023/04/09 02:34:45;;;;;;;12.40;11.30;;;8.10;99.90;;;;;;6060952;23;20205;-72
2023/04/09 02:37:13;;;;;;;12.52;11.43;;;8.10;99.90;;;;;;6052522;23;20188;-72
2023/04/09 02:39:41;;;;;;;12.43;11.32;;;8.00;99.90;;;;;;6054520;23;20197;-72
2023/04/09 02:42:08;;;;;;;13.32;12.13;;;7.90;99.90;;;;;;6048939;23;20238;-72
2023/04/09 02:44:35;;;;;;;12.98;11.77;;;7.80;99.90;;;;;;6060979;23;20190;-72
2023/04/09 02:47:02;;;;;;;13.68;12.38;;;7.80;99.90;;;;;;6060141;23;20273;-72
2023/04/09 02:49:29;;;;;;;12.93;11.82;;;7.70;99.90;;;;;;6060013;23;20198;-72
2023/04/09 02:51:56;;;;;;;13.32;12.10;;;7.60;99.90;;;;;;6061186;23;20293;-72
2023/04/09 02:54:23;;;;;;;12.77;11.57;;;7.60;99.90;;;;;;6055029;23;20220;-72
2023/04/09 02:56:51;;;;;;;11.60;10.60;;;7.50;99.90;;;;;;6060563;23;20189;-72
2023/04/09 02:59:19;;;;;;;13.10;11.90;;;7.40;99.90;;;;;;6061195;23;20197;-72
2023/04/09 03:01:46;;;;;;;12.65;11.52;;;7.30;99.90;;;;;;6059335;23;20299;-72
2023/04/09 03:04:12;;;;;;;13.10;11.90;;;7.30;99.90;;;;;;6060960;23;20213;-72
2023/04/09 03:06:40;;;;;;;13.25;12.05;;;7.30;99.90;;;;;;6054417;23;20205;-72
2023/04/09 03:09:07;;;;;;;12.95;11.57;;;7.20;99.90;;;;;;6057220;23;20187;-72
2023/04/09 03:11:34;;;;;;;13.05;11.80;;;7.20;99.90;;;;;;6057951;23;20213;-72
2023/04/09 03:14:02;;;;;;;13.07;11.88;;;7.30;99.90;;;;;;6057582;23;20385;-72
2023/04/09 03:16:29;;;;;;;13.85;12.55;;;7.30;99.90;;;;;;6057290;23;20272;-72
2023/04/09 03:18:56;;;;;;;12.30;11.10;;;7.30;99.90;;;;;;6053096;23;20706;-72
2023/04/09 03:21:23;;;;;;;13.18;11.88;;;7.30;99.90;;;;;;6059793;23;20209;-72
2023/04/09 03:23:50;;;;;;;13.13;11.85;;;7.40;99.90;;;;;;6057505;23;20194;-72
2023/04/09 03:26:17;;;;;;;11.73;10.65;;;7.40;99.90;;;;;;6059555;23;20658;-72
2023/04/09 03:28:44;;;;;;;12.05;10.95;;;7.50;99.90;;;;;;6037116;23;20194;-72
2023/04/09 03:31:13;;;;;;;11.85;10.80;;;7.60;99.90;;;;;;6059880;23;20299;-71
2023/04/09 03:33:40;;;;;;;12.95;11.80;;;7.60;99.90;;;;;;6060825;23;20202;-71
2023/04/09 03:36:07;;;;;;;12.45;11.35;;;7.70;99.90;;;;;;6059392;23;20255;-71
2023/04/09 03:38:34;;;;;;;13.48;12.25;;;7.70;99.90;;;;;;6057943;23;20195;-73
2023/04/09 03:41:01;;;;;;;12.15;11.05;;;7.70;99.90;;;;;;6060118;23;20223;-71
2023/04/09 03:43:28;;;;;;;12.80;11.52;;;7.70;99.90;;;;;;6046225;23;20319;-72
2023/04/09 03:45:55;;;;;;;12.55;11.35;;;7.80;99.90;;;;;;6052175;23;20709;-71
2023/04/09 03:48:23;;;;;;;12.65;11.45;;;7.80;99.90;;;;;;6060261;23;20651;-72
2023/04/09 03:50:52;;;;;;;12.38;11.18;;;7.80;99.90;;;;;;6061592;23;20557;-71
2023/04/09 03:53:19;;;;;;;11.85;10.75;;;7.80;99.90;;;;;;6058109;23;20225;-71
2023/04/09 03:55:46;;;;;;;12.02;10.93;;;7.80;99.90;;;;;;6058137;23;20211;-71
2023/04/09 03:58:13;;;;;;;12.02;10.93;;;7.80;99.90;;;;;;6059106;23;20228;-72
2023/04/09 04:00:40;;;;;;;12.25;11.15;;;7.80;99.90;;;;;;6061436;23;20230;-71
2023/04/09 04:03:07;;;;;;;12.75;11.55;;;7.80;99.90;;;;;;6059699;23;20641;-71
2023/04/09 04:05:36;;;;;;;13.55;12.35;;;7.80;99.90;;;;;;6058979;23;21004;-72
2023/04/09 04:08:03;;;;;;;13.93;12.73;;;7.80;99.90;;;;;;6049098;23;20195;-72
2023/04/09 04:10:30;;;;;;;12.70;11.60;;;7.80;99.90;;;;;;6061633;23;20216;-72
2023/04/09 04:12:57;;;;;;;13.45;12.18;;;7.70;99.90;;;;;;6061053;23;20203;-72
2023/04/09 04:15:24;;;;;;;12.65;11.55;;;7.70;99.90;;;;;;6045932;23;20284;-72
2023/04/09 04:17:51;;;;;;;13.70;12.32;;;7.70;99.90;;;;;;6056652;23;20303;-71
2023/04/09 04:20:18;;;;;;;12.70;11.50;;;7.70;99.90;;;;;;6058845;23;20212;-72
2023/04/09 04:22:46;;;;;;;12.15;11.05;;;7.70;99.90;;;;;;6060246;23;20246;-72
2023/04/09 04:25:13;;;;;;;13.50;12.30;;;7.70;99.90;;;;;;6059335;23;20278;-72
2023/04/09 04:27:42;;;;;;;12.93;11.68;;;7.70;99.90;;;;;;6059012;23;20550;-72
2023/04/09 04:30:09;;;;;;;13.38;12.18;;;7.70;99.90;;;;;;6055459;23;20735;-71
2023/04/09 04:32:36;;;;;;;12.50;11.30;;;7.70;99.90;;;;;;6056805;23;20191;-72
2023/04/09 04:35:04;;;;;;;12.43;11.32;;;7.60;99.90;;;;;;6061612;23;20198;-71
2023/04/09 04:37:31;;;;;;;13.98;12.75;;;7.70;99.90;;;;;;6061266;23;20198;-71
2023/04/09 04:40:01;;;;;;;12.32;11.15;;;7.70;99.90;;;;;;6057292;23;20249;-72
2023/04/09 04:42:29;;;;;;;13.93;12.52;;;7.60;99.90;;;;;;6061633;23;20292;-71
2023/04/09 04:44:55;;;;;;;13.70;12.40;;;7.60;99.90;;;;;;6056690;23;20198;-72
2023/04/09 04:47:22;;;;;;;12.13;11.02;;;7.70;99.90;;;;;;6055418;23;20190;-72
2023/04/09 04:49:50;;;;;;;13.52;12.23;;;7.60;99.90;;;;;;6047559;23;20265;-71
2023/04/09 04:52:16;;;;;;;13.50;12.30;;;7.60;99.90;;;;;;6054797;23;20561;-71
2023/04/09 04:54:43;;;;;;;14.13;12.82;;;7.60;99.90;;;;;;6055288;23;20214;-72
2023/04/09 04:57:12;;;;;;;12.93;11.82;;;7.60;99.90;;;;;;6060587;23;20195;-72
2023/04/09 04:59:40;;;;;;;13.25;12.05;;;7.60;99.90;;;;;;6059940;23;20277;-72
2023/04/09 05:02:07;;;;;;;12.77;11.60;;;7.70;99.90;;;;;;6061222;23;20197;-71
2023/04/09 05:04:34;;;;;;;13.52;12.13;;;7.70;99.90;;;;;;6058937;23;20209;-72
2023/04/09 05:07:01;;;;;;;11.98;10.88;;;7.70;99.90;;;;;;6052276;23;20260;-72
2023/04/09 05:09:28;;;;;;;12.82;11.73;;;7.70;99.90;;;;;;6054876;23;20305;-72
2023/04/09 05:11:55;;;;;;;13.82;12.60;;;7.80;99.90;;;;;;6048240;23;20801;-71
2023/04/09 05:14:24;;;;;;;14.13;12.82;;;7.80;99.90;;;;;;6048444;23;20285;-72
2023/04/09 05:16:51;;;;;;;13.80;12.57;;;7.70;99.90;;;;;;6060715;23;20225;-72
2023/04/09 05:19:18;;;;;;;13.25;12.00;;;7.70;99.90;;;;;;6052354;23;20305;-72
2023/04/09 05:21:45;;;;;;;13.40;12.20;;;7.70;99.90;;;;;;6054994;23;20222;-72
2023/04/09 05:24:12;;;;;;;13.10;11.90;;;7.70;99.90;;;;;;6051637;23;20273;-72
2023/04/09 05:26:39;;;;;;;13.07;11.93;;;7.70;99.90;;;;;;6051962;23;20194;-72
2023/04/09 05:29:06;;;;;;;12.90;11.75;;;7.70;99.90;;;;;;6058627;23;20277;-72
2023/04/09 05:31:35;;;;;;;12.70;11.60;;;7.60;99.90;;;;;;6061243;23;20208;-72
2023/04/09 05:34:02;;;;;;;13.85;12.55;;;7.70;99.90;;;;;;6052413;23;20202;-72
2023/04/09 05:36:29;;;;;;;12.45;11.35;;;7.70;99.90;;;;;;6055256;23;20912;-73
2023/04/09 05:38:56;;;;;;;12.75;11.55;;;7.70;99.90;;;;;;6051696;23;20212;-72
2023/04/09 05:41:23;;;;;;;13.98;12.68;;;7.80;99.90;;;;;;6050672;23;20568;-72
2023/04/09 05:43:50;;;;;;;11.82;10.82;;;7.80;99.90;;;;;;6047539;23;20277;-72
2023/04/09 05:46:17;;;;;;;13.27;12.05;;;7.90;99.90;;;;;;6047041;23;20219;-72
2023/04/09 05:48:46;;;;;;;12.98;11.85;;;7.90;99.90;;;;;;6045874;23;20222;-72
2023/04/09 05:51:14;;;;;;;11.45;10.55;;;8.00;99.90;;;;;;6053727;23;20216;-72
2023/04/09 05:53:41;;;;;;;12.93;11.70;;;8.00;99.90;;;;;;6049678;23;20817;-72
2023/04/09 05:56:14;;;;;;;12.30;11.20;;;8.10;99.90;;;;;;6041468;23;20219;-72
2023/04/09 05:58:41;;;;;;;12.43;11.30;;;8.10;99.90;;;;;;6052865;23;20567;-72
2023/04/09 06:01:08;;;;;;;12.98;11.77;;;8.00;99.90;;;;;;6044711;23;20313;-72
2023/04/09 06:03:35;;;;;;;12.95;11.82;;;8.00;99.90;;;;;;6054223;23;20220;-72
2023/04/09 06:06:04;;;;;;;12.23;11.05;;;8.00;99.90;;;;;;6055117;23;20188;-72
2023/04/09 06:08:31;;;;;;;12.35;11.25;;;8.10;99.90;;;;;;6047241;23;20279;-71
2023/04/09 06:10:59;;;;;;;12.50;11.30;;;8.10;99.90;;;;;;6045052;23;20197;-71
2023/04/09 06:13:26;;;;;;;12.10;11.10;;;8.10;99.90;;;;;;6051002;23;20195;-71
2023/04/09 06:15:53;;;;;;;13.10;11.90;;;8.10;99.90;;;;;;6054736;23;20189;-71
2023/04/09 06:18:20;;;;;;;13.40;12.10;;;8.10;99.90;;;;;;6048542;23;20192;-72
2023/04/09 06:20:47;;;;;;;12.25;11.15;;;8.20;99.90;;;;;;6055411;23;20204;-73
2023/04/09 06:23:16;;;;;;;12.10;11.00;;;8.20;99.90;;;;;;6041644;23;20228;-74
2023/04/09 06:25:43;;;;;;;11.65;10.57;;;8.30;99.90;;;;;;6047036;23;20249;-72
2023/04/09 06:28:10;;;;;;;13.20;12.00;;;8.40;99.90;;;;;;6047412;23;20195;-72
2023/04/09 06:30:37;;;;;;;12.93;11.63;;;8.60;99.90;;;;;;6053790;23;20191;-74
2023/04/09 06:33:04;;;;;;;11.48;10.48;;;8.80;99.90;;;;;;6054484;23;20200;-71
2023/04/09 06:35:31;;;;;;;11.88;10.80;;;8.90;99.90;;;;;;6056790;23;20207;-71
2023/04/09 06:37:58;;;;;;;12.30;11.20;;;8.90;99.90;;;;;;6057080;23;20687;-72
2023/04/09 06:40:27;;;;;;;12.40;11.35;;;8.80;99.90;;;;;;6049158;23;20219;-71
2023/04/09 06:42:54;;;;;;;11.43;10.43;;;8.80;99.90;;;;;;6050377;23;20228;-72
2023/04/09 06:45:21;;;;;;;12.25;11.25;;;8.90;99.90;;;;;;6050513;23;20227;-72
2023/04/09 06:47:48;;;;;;;12.52;11.43;;;9.00;99.90;;;;;;6053968;23;20196;-72
2023/04/09 06:50:15;;;;;;;11.00;10.07;;;9.30;99.90;;;;;;6055005;23;20189;-72
2023/04/09 06:52:42;;;;;;;12.85;11.65;;;9.50;99.90;;;;;;6050717;23;20216;-71
2023/04/09 06:55:10;;;;;;;12.43;11.35;;;9.90;99.90;;;;;;6056041;23;20189;-72
2023/04/09 06:57:38;;;;;;;11.77;10.77;;;10.20;99.90;;;;;;6057167;23;20276;-71
2023/04/09 07:00:07;;;;;;;11.35;10.35;;;10.60;99.90;;;;;;6047563;23;20688;-72
2023/04/09 07:02:34;;;;;;;12.27;11.18;;;10.80;99.90;;;;;;6049011;23;20199;-73
2023/04/09 07:05:02;;;;;;;11.63;10.63;;;11.00;99.90;;;;;;6054204;23;21395;-74
2023/04/09 07:07:29;;;;;;;7.73;6.87;;;11.30;99.90;;;;;;6049523;23;20247;-69
2023/04/09 07:09:56;;;;;;;10.53;9.53;;;11.60;99.90;;;;;;6052158;23;20509;-71
2023/04/09 07:12:27;;;;;;;11.67;10.67;;;12.10;99.90;;;;;;6042524;23;20858;-71
2023/04/09 07:14:58;;;;;;;11.10;10.10;;;12.10;99.90;;;;;;6053583;23;20515;-72
2023/04/09 07:17:25;;;;;;;10.30;9.50;;;12.00;99.90;;;;;;6050996;23;20487;-72
2023/04/09 07:19:53;;;;;;;9.77;8.80;;;12.10;99.90;;;;;;6059117;23;20488;-72
2023/04/09 07:22:21;;;;;;;9.13;8.43;;;12.20;99.90;;;;;;6048559;23;20454;-74
2023/04/09 07:24:52;;;;;;;8.50;7.90;;;12.40;99.90;;;;;;6056086;23;20960;-73
2023/04/09 07:27:19;;;;;;;8.80;8.10;;;12.60;99.90;;;;;;6052097;23;20763;-73
2023/04/09 07:29:47;;;;;;;9.20;8.50;;;12.70;99.90;;;;;;6050664;23;20517;-73
2023/04/09 07:32:15;;;;;;;9.77;8.97;;;13.00;99.90;;;;;;6028990;23;20914;-72
2023/04/09 07:34:43;;;;;;;8.60;7.97;;;13.00;99.90;;;;;;6052274;23;20799;-74
2023/04/09 07:37:11;;;;;;;10.50;9.70;;;13.20;99.90;;;;;;6049848;23;20504;-73
2023/04/09 07:39:38;;;;;;;9.20;8.50;;;13.40;99.90;;;;;;6055501;23;20469;-72
2023/04/09 07:42:05;;;;;;;10.13;9.33;;;13.40;99.90;;;;;;6052973;23;20488;-71
2023/04/09 07:44:35;;;;;;;9.70;8.90;;;13.30;99.90;;;;;;6054936;23;20483;-74
2023/04/09 07:47:02;;;;;;;10.53;9.63;;;13.20;99.90;;;;;;6058702;23;20779;-73
2023/04/09 07:49:30;;;;;;;10.07;9.27;;;13.20;99.90;;;;;;6057656;23;20464;-73
2023/04/09 07:51:59;;;;;;;9.50;8.70;;;12.90;99.90;;;;;;6057723;23;20521;-73
2023/04/09 07:54:27;;;;;;;9.00;8.13;;;12.80;99.90;;;;;;6056829;23;20491;-72
2023/04/09 07:56:55;;;;;;;8.80;8.00;;;12.80;99.90;;;;;;6053561;23;21280;-72
2023/04/09 07:59:26;;;;;;;8.60;7.90;;;12.90;99.90;;;;;;6056072;23;20463;-75
2023/04/09 08:01:53;;;;;;;9.43;8.67;;;12.70;99.90;;;;;;6057714;23;20431;-74
2023/04/09 08:04:20;;;;;;;9.23;8.40;;;12.10;99.90;;;;;;6050154;23;20471;-80
2023/04/09 08:06:50;;;;;;;10.95;10.05;;;11.80;99.90;;;;;;6058171;23;20455;-73
2023/04/09 08:09:18;;;;;;;9.83;9.10;;;11.80;99.90;;;;;;6057849;23;20201;-75
2023/04/09 08:11:46;;;;;;;7.13;6.53;;;12.00;99.90;;;;;;6052457;23;20442;-72
2023/04/09 08:14:13;;;;;;;6.87;6.33;;;12.40;99.90;;;;;;6040449;23;20446;-72
2023/04/09 08:16:40;;;;;;;7.40;6.80;;;12.60;99.90;;;;;;6047946;23;20519;-72
2023/04/09 08:19:08;;;;;;;7.93;7.33;;;12.70;99.90;;;;;;6043816;23;20465;-72
2023/04/09 08:21:41;;;;;;;8.20;7.50;;;12.50;99.90;;;;;;6049421;23;20486;-73
2023/04/09 08:24:11;;;;;;;6.90;6.30;;;12.70;99.90;;;;;;6055698;23;21029;-71
2023/04/09 08:26:38;;;;;;;7.67;6.97;;;12.80;99.90;;;;;;6041976;23;20437;-71
2023/04/09 08:29:05;;;;;;;7.53;7.03;;;12.80;99.90;;;;;;6052299;23;20976;-72
2023/04/09 08:31:32;;;;;;;6.37;5.87;;;12.80;99.90;;;;;;6045719;23;20513;-71
2023/04/09 08:34:00;;;;;;;7.60;7.00;;;13.10;99.90;;;;;;6055400;23;20454;-72
2023/04/09 08:36:27;;;;;;;7.93;7.23;;;13.40;99.90;;;;;;6047845;23;20458;-72
2023/04/09 08:38:55;;;;;;;7.20;6.70;;;13.80;99.90;;;;;;6040504;23;20491;-72
2023/04/09 08:41:25;;;;;;;7.43;6.90;;;13.90;99.90;;;;;;6049749;23;20439;-72
2023/04/09 08:43:53;;;;;;;7.63;7.03;;;13.90;99.90;;;;;;6052726;23;20561;-72
2023/04/09 08:46:20;;;;;;;6.93;6.43;;;13.90;99.90;;;;;;6048797;23;20997;-72
2023/04/09 08:48:49;;;;;;;6.83;6.27;;;14.10;99.90;;;;;;6049575;23;20533;-72
2023/04/09 08:51:18;;;;;;;7.50;6.90;;;14.40;99.90;;;;;;6049059;23;20435;-72
2023/04/09 08:53:46;;;;;;;8.00;7.40;;;14.90;99.90;;;;;;6049243;23;20832;-72
2023/04/09 08:56:14;;;;;;;8.17;7.53;;;15.40;99.90;;;;;;6060880;23;20427;-72
2023/04/09 08:58:47;;;;;;;7.50;6.93;;;15.40;99.90;;;;;;6042762;23;20455;-72
2023/04/09 09:01:21;;;;;;;7.33;6.80;;;15.10;99.90;;;;;;6037458;23;20445;-72
2023/04/09 09:03:57;;;;;;;8.90;8.30;;;15.00;99.90;;;;;;6043318;23;20454;-72
2023/04/09 09:06:27;;;;;;;8.70;8.00;;;15.10;99.90;;;;;;6045011;23;20432;-72
2023/04/09 09:09:04;;;;;;;7.93;7.33;;;14.80;99.90;;;;;;6050035;23;20462;-72
2023/04/09 09:11:32;;;;;;;7.37;6.87;;;14.60;99.90;;;;;;6048263;23;20478;-72
2023/04/09 09:14:02;;;;;;;6.70;6.20;;;14.50;99.90;;;;;;6049644;23;20450;-72
2023/04/09 09:16:30;;;;;;;7.10;6.60;;;14.50;99.90;;;;;;6043271;23;20566;-72
2023/04/09 09:18:57;;;;;;;6.50;6.10;;;14.10;99.90;;;;;;6049600;23;20469;-72
2023/04/09 09:21:25;;;;;;;7.40;6.80;;;14.10;99.90;;;;;;6051794;23;20929;-72
2023/04/09 09:23:52;;;;;;;6.40;5.90;;;14.20;99.90;;;;;;6058890;23;20521;-72
2023/04/09 09:26:21;;;;;;;7.60;7.00;;;14.50;99.90;;;;;;6059012;23;20439;-71
2023/04/09 09:28:49;;;;;;;7.70;7.00;;;14.40;99.70;;;;;;6047364;23;20460;-72
2023/04/09 09:31:19;;;;;;;6.13;5.73;;;14.10;99.90;;;;;;6049063;23;20439;-73
2023/04/09 09:33:47;;;;;;;6.33;5.83;;;14.10;99.90;;;;;;6055625;23;20585;-71
2023/04/09 09:36:15;;;;;;;7.53;6.90;;;14.30;98.80;;;;;;6057583;23;20529;-71
2023/04/09 09:38:53;;;;;;;7.13;6.63;;;14.00;99.10;;;;;;6034914;23;20959;-72
2023/04/09 09:41:20;;;;;;;6.70;6.10;;;13.80;99.50;;;;;;6050602;23;20868;-71
2023/04/09 09:43:48;;;;;;;6.83;6.33;;;13.80;99.30;;;;;;6050214;23;20446;-72
2023/04/09 09:46:15;;;;;;;8.00;7.30;;;13.50;99.30;;;;;;6048583;23;20525;-71
2023/04/09 09:48:46;;;;;;;6.47;6.03;;;13.50;99.20;;;;;;6050698;23;20491;-72
2023/04/09 09:51:14;;;;;;;6.93;6.43;;;13.80;99.80;;;;;;6049610;23;20428;-72
2023/04/09 09:53:44;;;;;;;6.77;6.27;;;14.20;98.60;;;;;;6050553;23;20439;-71
2023/04/09 09:56:15;;;;;;;6.80;6.20;;;13.90;98.40;;;;;;6050692;23;20433;-71
2023/04/09 09:58:45;;;;;;;6.20;5.70;;;13.80;98.80;;;;;;6049815;23;20861;-72
2023/04/09 10:01:13;;;;;;;6.90;6.40;;;14.00;98.50;;;;;;6045005;23;20525;-72
2023/04/09 10:03:45;;;;;;;6.77;6.27;;;14.30;98.80;;;;;;6048238;23;20450;-73
2023/04/09 10:06:13;;;;;;;6.47;5.97;;;15.10;98.30;;;;;;6044720;23;20444;-71
2023/04/09 10:08:42;;;;;;;6.20;5.80;;;15.80;97.50;;;;;;6047945;23;21026;-72
2023/04/09 10:11:09;;;;;;;5.67;5.27;;;16.30;96.70;;;;;;6050231;23;20427;-73
2023/04/09 10:13:39;;;;;;;5.40;5.00;;;17.00;94.20;;;;;;6049433;23;20443;-72
2023/04/09 10:16:07;;;;;;;4.83;4.53;;;17.10;94.70;;;;;;6059222;23;20450;-72
2023/04/09 10:18:35;;;;;;;4.57;4.20;;;17.50;93.80;;;;;;6044778;23;20864;-72
2023/04/09 10:21:10;;;;;;;5.00;4.60;;;16.70;91.70;;;;;;6046261;23;20491;-72
2023/04/09 10:23:39;;;;;;;5.70;5.30;;;16.20;93.50;;;;;;6060050;23;20500;-73
2023/04/09 10:26:07;;;;;;;4.83;4.53;;;16.00;92.50;;;;;;6056193;23;20555;-73
2023/04/09 10:28:36;;;;;;;4.53;4.23;;;16.10;91.90;;;;;;6045868;23;20453;-72
2023/04/09 10:31:05;;;;;;;4.10;3.80;;;16.20;92.40;;;;;;6047269;23;20437;-72
2023/04/09 10:33:32;;;;;;;4.30;4.00;;;16.80;90.80;;;;;;6048247;23;20451;-72
2023/04/09 10:36:01;;;;;;;3.30;3.10;;;17.20;91.60;;;;;;6058520;23;20518;-72
2023/04/09 10:38:37;;;;;;;4.00;3.70;;;17.60;86.10;;;;;;6045698;23;20452;-72
2023/04/09 10:41:10;;;;;;;3.93;3.63;;;17.50;84.20;;;;;;6047618;23;20474;-72
2023/04/09 10:43:37;;;;;;;4.30;4.00;;;16.40;85.80;;;;;;6042420;23;20915;-72
2023/04/09 10:46:05;;;;;;;3.43;3.23;;;16.00;85.60;;;;;;6051106;23;20510;-72
2023/04/09 10:48:33;;;;;;;4.50;4.20;;;15.80;83.60;;;;;;6045623;23;20565;-72
2023/04/09 10:51:04;;;;;;;4.53;4.23;;;15.70;86.50;;;;;;6050583;23;20462;-72
2023/04/09 10:53:32;;;;;;;4.90;4.50;;;15.40;86.90;;;;;;6047036;23;20486;-73
2023/04/09 10:56:01;;;;;;;4.90;4.57;;;15.00;88.00;;;;;;6054214;23;20511;-71
2023/04/09 10:58:28;;;;;;;4.80;4.47;;;14.80;90.10;;;;;;6037604;23;20487;-72
2023/04/09 11:00:55;;;;;;;4.67;4.37;;;14.70;91.10;;;;;;6051017;23;20439;-72
2023/04/09 11:03:26;;;;;;;4.30;3.90;;;14.30;90.30;;;;;;6057041;23;20949;-72
2023/04/09 11:05:58;;;;;;;3.67;3.47;;;13.80;90.70;;;;;;6038966;23;20760;-72
2023/04/09 11:08:29;;;;;;;3.83;3.57;;;13.60;91.10;;;;;;6055919;23;20492;-72
2023/04/09 11:10:57;;;;;;;4.20;3.90;;;13.40;90.40;;;;;;6046172;23;20425;-72
2023/04/09 11:13:25;;;;;;;4.77;4.47;;;13.30;91.40;;;;;;6049489;23;20524;-73
2023/04/09 11:15:55;;;;;;;4.10;3.80;;;14.10;90.60;;;;;;6057935;23;20541;-71
2023/04/09 11:18:24;;;;;;;4.60;4.30;;;14.80;89.10;;;;;;6046154;23;20551;-71
2023/04/09 11:20:55;;;;;;;4.63;4.33;;;15.30;87.70;;;;;;6047595;23;20472;-72
2023/04/09 11:23:23;;;;;;;4.67;4.37;;;15.90;86.80;;;;;;6060673;23;20757;-71
2023/04/09 11:25:52;;;;;;;4.00;3.80;;;15.80;86.60;;;;;;6060836;23;20517;-71
2023/04/09 11:28:20;;;;;;;4.93;4.60;;;15.30;88.80;;;;;;6053407;23;20536;-71
2023/04/09 11:30:50;;;;;;;4.63;4.33;;;15.50;88.10;;;;;;6043935;23;20523;-70
2023/04/09 11:33:17;;;;;;;4.80;4.50;;;15.70;87.30;;;;;;6053406;23;20519;-71
2023/04/09 11:35:45;;;;;;;4.50;4.20;;;15.50;87.70;;;;;;6054774;23;20915;-72
2023/04/09 11:38:12;;;;;;;3.97;3.77;;;15.50;88.30;;;;;;6050063;23;20512;-72
2023/04/09 11:40:46;;;;;;;4.87;4.47;;;15.30;86.30;;;;;;6050603;23;20435;-72
2023/04/09 11:43:15;;;;;;;4.40;4.10;;;14.80;86.70;;;;;;6045832;23;20487;-72
2023/04/09 11:45:43;;;;;;;3.53;3.33;;;14.70;87.90;;;;;;6053217;23;20463;-72
2023/04/09 11:48:11;;;;;;;4.20;3.90;;;15.00;86.60;;;;;;6048715;23;20464;-73
2023/04/09 11:50:39;;;;;;;4.23;3.93;;;15.60;85.70;;;;;;6050635;23;20427;-72
2023/04/09 11:53:17;;;;;;;3.80;3.50;;;15.90;86.00;;;;;;6059180;23;20934;-72
2023/04/09 11:55:47;;;;;;;4.20;3.90;;;15.90;84.50;;;;;;6045545;23;20504;-72
2023/04/09 11:58:15;;;;;;;5.20;4.90;;;15.60;84.10;;;;;;6050433;23;20459;-72
2023/04/09 12:00:42;;;;;;;4.30;4.00;;;15.50;86.00;;;;;;6038061;23;20489;-72
2023/04/09 12:03:11;;;;;;;4.20;3.90;;;15.30;84.20;;;;;;6046940;23;21031;-72
2023/04/09 12:05:38;;;;;;;4.63;4.23;;;15.50;85.90;;;;;;6048819;23;20472;-72
2023/04/09 12:08:08;;;;;;;4.80;4.40;;;16.10;85.30;;;;;;6052193;23;20828;-72
2023/04/09 12:10:37;;;;;;;4.70;4.40;;;16.60;82.90;;;;;;6052101;23;21477;-71
2023/04/09 12:13:06;;;;;;;4.90;4.60;;;16.30;84.90;;;;;;6049501;23;20487;-71
2023/04/09 12:15:34;;;;;;;4.67;4.37;;;16.10;84.70;;;;;;6045896;23;20789;-71
2023/04/09 12:18:02;;;;;;;4.97;4.67;;;16.10;83.30;;;;;;6056266;23;20459;-72
2023/04/09 12:20:32;;;;;;;4.37;4.03;;;16.30;83.40;;;;;;6045858;23;20469;-71
2023/04/09 12:23:02;;;;;;;6.00;5.60;;;16.40;83.70;;;;;;6043318;23;20440;-71
2023/04/09 12:25:30;;;;;;;5.43;5.03;;;17.10;82.00;;;;;;6039478;23;20468;-71
2023/04/09 12:27:57;;;;;;;4.27;3.97;;;17.30;80.00;;;;;;6057421;23;20479;-72
2023/04/09 12:30:24;;;;;;;4.00;3.73;;;17.30;81.80;;;;;;6044642;23;20526;-72
2023/04/09 12:32:52;;;;;;;3.40;3.20;;;17.60;79.50;;;;;;6047497;23;20446;-72
2023/04/09 12:35:20;;;;;;;4.90;4.60;;;17.50;79.80;;;;;;6059081;23;20471;-71
2023/04/09 12:37:48;;;;;;;4.20;3.90;;;17.10;80.30;;;;;;6059199;23;20459;-72
2023/04/09 12:40:16;;;;;;;4.80;4.50;;;17.00;80.10;;;;;;6049445;23;20464;-72
2023/04/09 12:42:44;;;;;;;4.40;4.10;;;17.10;79.00;;;;;;6048163;23;20440;-72
2023/04/09 12:45:13;;;;;;;4.63;4.33;;;17.40;79.00;;;;;;6053639;23;20987;-72